Nearby METAR Reports

 

EGKB - Biggin Hill, United Kingdom
Distance from station: S 5mi, 8km
Updated: 22/05/2015 20:50
NOT Current
Few Clouds
Few Clouds
 Wind from SW
Wind: SW 3 mph , 6 km/h
Temperature: 16°C
Dew Point: 11°C
Humidity: 72%
Barometer: 1024 hPa
Clouds: Few Clouds
Visibility: 6 miles , 10 km
Cloud details: Few Clouds 610 m
2015/05/22 19:50 EGKB 221950Z 23003KT 9999 FEW020 16/11 Q1024
EGLC - London City Airp, United Kingdom
Distance from station: NNE 8mi, 13km
Updated: 23/05/2015 03:20
Partly cloudy
Partly cloudy
 Wind from NNW
Wind: NNW 7 mph , 11 km/h
Temperature: 16°C
Dew Point: 11°C
Humidity: 72%
Barometer: 1023 hPa
Clouds: Partly cloudy
Visibility: 6 miles , 10 km
Cloud details: Partly cloudy 732 m
2015/05/23 02:20 EGLC 230220Z AUTO 33006KT 9999 SCT024/// 16/11 Q1023
 
EGKK - London/Gatwick A, United Kingdom
Distance from station: SSW 19mi, 31km
Updated: 23/05/2015 03:20
Clear
Clear
 Wind from NNW
Wind: NNW 7 mph , 11 km/h
Temperature: 15°C
Dew Point: 12°C
Humidity: 82%
Barometer: 1023 hPa
Summary: Clear
Visibility: greater than 7 miles , 10 km
2015/05/23 02:20 EGKK 230220Z 34006KT CAVOK 15/12 Q1023
EGLL - London/Heathrow, United Kingdom
Distance from station: WNW 21mi, 33km
Updated: 23/05/2015 03:20
Clear
Clear
 Wind from NNW
Wind: NNW 7 mph , 11 km/h
Temperature: 15°C
Dew Point: 11°C
Humidity: 77%
Barometer: 1024 hPa
Summary: Clear
Visibility: greater than 7 miles , 10 km
2015/05/23 02:20 EGLL 230220Z 33006KT 290V360 CAVOK 15/11 Q1024